Aviation Digital Data Service (ADDS)

Output produced by METARs form (1728 UTC 03 June 2020)
found at http://www.aviationweather.gov/metar/data/
 
METAR text: RKSW 031151Z 28006KT 9999 BKN015 21/19 A2965 RMK CIG015
Conditions at: RKSW (SUWON (US/KOR-AF, KR) observed 1151 UTC 03 June 2020
Temperature: 21.0°C (70°F)
Dewpoint: 19.0°C (66°F) [RH = 88%]
Pressure (altimeter): 29.65 inches Hg (1004.1 mb)
Winds: from the W (280 degrees) at 7 MPH (6 knots; 3.1 m/s)
Visibility: 6 or more miles (10+ km)
Ceiling: 1500 feet AGL
Clouds: broken clouds at 1500 feet AGL
Weather: no significant weather observed at this time

METAR text: RKSW 031052Z 29007KT 9999 SCT015 BKN025 21/19 A2964 RMK CIG025
Conditions at: RKSW (SUWON (US/KOR-AF, KR) observed 1052 UTC 03 June 2020
Temperature: 21.0°C (70°F)
Dewpoint: 19.0°C (66°F) [RH = 88%]
Pressure (altimeter): 29.64 inches Hg (1003.8 mb)
Winds: from the WNW (290 degrees) at 8 MPH (7 knots; 3.6 m/s)
Visibility: 6 or more miles (10+ km)
Ceiling: 2500 feet AGL
Clouds: scattered clouds at 1500 feet AGL
broken clouds at 2500 feet AGL
Weather: no significant weather observed at this time

METAR text: RKSW 031043Z 30009KT 9999 SCT017 BKN030 21/19 A2963 RMK CIG017
Conditions at: RKSW (SUWON (US/KOR-AF, KR) observed 1043 UTC 03 June 2020
Temperature: 21.0°C (70°F)
Dewpoint: 19.0°C (66°F) [RH = 88%]
Pressure (altimeter): 29.63 inches Hg (1003.5 mb)
Winds: from the WNW (300 degrees) at 10 MPH (9 knots; 4.6 m/s)
Visibility: 6 or more miles (10+ km)
Ceiling: 3000 feet AGL
Clouds: scattered clouds at 1700 feet AGL
broken clouds at 3000 feet AGL
Weather: no significant weather observed at this time

METAR text: RKSW 031041Z 30009KT 9999 BKN017 BKN030 21/19 A2963 RMK CIG017
Conditions at: RKSW (SUWON (US/KOR-AF, KR) observed 1041 UTC 03 June 2020
Temperature: 21.0°C (70°F)
Dewpoint: 19.0°C (66°F) [RH = 88%]
Pressure (altimeter): 29.63 inches Hg (1003.5 mb)
Winds: from the WNW (300 degrees) at 10 MPH (9 knots; 4.6 m/s)
Visibility: 6 or more miles (10+ km)
Ceiling: 1700 feet AGL
Clouds: broken clouds at 1700 feet AGL
broken clouds at 3000 feet AGL
Weather: no significant weather observed at this time

METAR text: RKSW 030138Z 15003KT 9000 BR SCT020 BKN030 22/18 A2971 RMK CIG030
Conditions at: RKSW (SUWON (US/KOR-AF, KR) observed 0138 UTC 03 June 2020
Temperature: 22.0°C (72°F)
Dewpoint: 18.0°C (64°F) [RH = 78%]
Pressure (altimeter): 29.71 inches Hg (1006.2 mb)
Winds: from the SSE (150 degrees) at 3 MPH (3 knots; 1.5 m/s)
Visibility: 6 miles ( 9 km)
Ceiling: 3000 feet AGL
Clouds: scattered clouds at 2000 feet AGL
broken clouds at 3000 feet AGL
Weather: BR  (mist)

METAR text: RKSW 022337Z 16005KT 4800 BR BKN015 BKN025 20/18 A2971 RMK CIG015
Conditions at: RKSW (SUWON (US/KOR-AF, KR) observed 2337 UTC 02 June 2020
Temperature: 20.0°C (68°F)
Dewpoint: 18.0°C (64°F) [RH = 88%]
Pressure (altimeter): 29.71 inches Hg (1006.2 mb)
Winds: from the SSE (160 degrees) at 6 MPH (5 knots; 2.6 m/s)
Visibility: 2.98 miles (4.80 km)
Ceiling: 1500 feet AGL
Clouds: broken clouds at 1500 feet AGL
broken clouds at 2500 feet AGL
Weather: BR  (mist)

METAR text: RKSW 022121Z 17001KT 3200 BR BKN010 OVC020 18/18 A2970 RMK CIG010
Conditions at: RKSW (SUWON (US/KOR-AF, KR) observed 2121 UTC 02 June 2020
Temperature: 18.0°C (64°F)
Dewpoint: 18.0°C (64°F) [RH = 100%]
Pressure (altimeter): 29.70 inches Hg (1005.8 mb)
Winds: from the S (170 degrees) at 1 MPH (1 knots; 0.5 m/s)
Visibility: 1.99 miles (3.20 km)
Ceiling: 1000 feet AGL
Clouds: broken clouds at 1000 feet AGL
overcast cloud deck at 2000 feet AGL
Weather: BR  (mist)

METAR text: RKSW 022031Z 31001KT 2400 BR FEW000 BKN006 OVC010 18/18 A2970 RMK CIG006 FG FEW000
Conditions at: RKSW (SUWON (US/KOR-AF, KR) observed 2031 UTC 02 June 2020
Temperature: 18.0°C (64°F)
Dewpoint: 18.0°C (64°F) [RH = 100%]
Pressure (altimeter): 29.70 inches Hg (1005.8 mb)
Winds: from the NW (310 degrees) at 1 MPH (1 knots; 0.5 m/s)
Visibility: 1.49 miles (2.40 km)
Ceiling: 600 feet AGL
Clouds: few clouds at 0 feet AGL
broken clouds at 600 feet AGL
overcast cloud deck at 1000 feet AGL
Weather: BR  (mist)

METAR text: RKSW 022025Z 33002KT 2400 -DZ BR FEW000 BKN006 OVC010 18/18 A2970 RMK CIG006 FG FEW000
Conditions at: RKSW (SUWON (US/KOR-AF, KR) observed 2025 UTC 02 June 2020
Temperature: 18.0°C (64°F)
Dewpoint: 18.0°C (64°F) [RH = 100%]
Pressure (altimeter): 29.70 inches Hg (1005.8 mb)
Winds: from the NNW (330 degrees) at 2 MPH (2 knots; 1.0 m/s)
Visibility: 1.49 miles (2.40 km)
Ceiling: 600 feet AGL
Clouds: few clouds at 0 feet AGL
broken clouds at 600 feet AGL
overcast cloud deck at 1000 feet AGL
Weather: -DZ BR  (light drizzle, mist)

METAR text: RKSW 022015Z 33002KT 2400 -DZ BR BKN006 OVC010 18/18 A2970 RMK CIG006
Conditions at: RKSW (SUWON (US/KOR-AF, KR) observed 2015 UTC 02 June 2020
Temperature: 18.0°C (64°F)
Dewpoint: 18.0°C (64°F) [RH = 100%]
Pressure (altimeter): 29.70 inches Hg (1005.8 mb)
Winds: from the NNW (330 degrees) at 2 MPH (2 knots; 1.0 m/s)
Visibility: 1.49 miles (2.40 km)
Ceiling: 600 feet AGL
Clouds: broken clouds at 600 feet AGL
overcast cloud deck at 1000 feet AGL
Weather: -DZ BR  (light drizzle, mist)

METAR text: RKSW 021956Z 33002KT 3200 -DZ BR SCT006 BKN010 18/18 A2971 RMK CIG010
Conditions at: RKSW (SUWON (US/KOR-AF, KR) observed 1956 UTC 02 June 2020
Temperature: 18.0°C (64°F)
Dewpoint: 18.0°C (64°F) [RH = 100%]
Pressure (altimeter): 29.71 inches Hg (1006.2 mb)
Winds: from the NNW (330 degrees) at 2 MPH (2 knots; 1.0 m/s)
Visibility: 1.99 miles (3.20 km)
Ceiling: 1000 feet AGL
Clouds: scattered clouds at 600 feet AGL
broken clouds at 1000 feet AGL
Weather: -DZ BR  (light drizzle, mist)

METAR text: RKSW 021435Z 24005KT 9999 BKN015 19/17 A2973 RMK CIG015
Conditions at: RKSW (SUWON (US/KOR-AF, KR) observed 1435 UTC 02 June 2020
Temperature: 19.0°C (66°F)
Dewpoint: 17.0°C (63°F) [RH = 88%]
Pressure (altimeter): 29.73 inches Hg (1006.9 mb)
Winds: from the WSW (240 degrees) at 6 MPH (5 knots; 2.6 m/s)
Visibility: 6 or more miles (10+ km)
Ceiling: 1500 feet AGL
Clouds: broken clouds at 1500 feet AGL
Weather: no significant weather observed at this time

METAR text: RKSW 020941Z 26003KT 9999 -RA BKN035 21/13 A2971 RMK CIG035
Conditions at: RKSW (SUWON (US/KOR-AF, KR) observed 0941 UTC 02 June 2020
Temperature: 21.0°C (70°F)
Dewpoint: 13.0°C (55°F) [RH = 60%]
Pressure (altimeter): 29.71 inches Hg (1006.2 mb)
Winds: from the W (260 degrees) at 3 MPH (3 knots; 1.5 m/s)
Visibility: 6 or more miles (10+ km)
Ceiling: 3500 feet AGL
Clouds: broken clouds at 3500 feet AGL
Weather: -RA  (light rain)